createdAt,value
2018-12-10T00:00:34.296Z,7.30
2018-12-10T00:03:07.725Z,7.30
2018-12-10T00:05:35.182Z,7.30
2018-12-10T00:08:02.669Z,7.30
2018-12-10T00:10:30.164Z,7.20
2018-12-10T00:12:57.639Z,7.20
2018-12-10T00:15:25.090Z,7.20
2018-12-10T00:17:52.570Z,7.10
2018-12-10T00:20:20.031Z,7.20
2018-12-10T00:22:47.486Z,7.20
2018-12-10T00:25:14.948Z,7.20
2018-12-10T00:27:42.420Z,7.10
2018-12-10T00:30:09.913Z,7.20
2018-12-10T00:32:37.393Z,7.10
2018-12-10T00:35:04.886Z,7.20
2018-12-10T00:37:32.329Z,7.20
2018-12-10T00:39:59.896Z,7.10
2018-12-10T00:42:27.370Z,7.20
2018-12-10T00:44:54.820Z,7.20
2018-12-10T00:47:22.298Z,7.10
2018-12-10T00:49:49.749Z,7.10
2018-12-10T00:52:17.188Z,7.20
2018-12-10T00:54:44.645Z,7.10
2018-12-10T00:57:12.128Z,7.10
2018-12-10T00:59:39.572Z,7.10
2018-12-10T01:02:07.027Z,7.10
2018-12-10T01:04:34.501Z,7.10
2018-12-10T01:07:01.945Z,7.00
2018-12-10T01:09:29.391Z,7.00
2018-12-10T01:11:56.830Z,7.00
2018-12-10T01:14:24.299Z,7.00
2018-12-10T01:16:51.746Z,7.00
2018-12-10T01:19:19.196Z,7.00
2018-12-10T01:21:46.709Z,7.00
2018-12-10T01:24:14.176Z,7.00
2018-12-10T01:26:41.712Z,7.10
2018-12-10T01:29:09.164Z,7.00
2018-12-10T01:31:36.604Z,7.10
2018-12-10T01:34:04.112Z,7.00
2018-12-10T01:36:31.561Z,7.00
2018-12-10T01:38:59.072Z,7.00
2018-12-10T01:41:26.854Z,7.00
2018-12-10T01:43:54.301Z,6.90
2018-12-10T01:46:21.749Z,6.90
2018-12-10T01:48:49.208Z,6.80
2018-12-10T01:51:16.676Z,6.90
2018-12-10T01:53:44.135Z,6.80
2018-12-10T01:56:11.601Z,6.80
2018-12-10T01:58:39.285Z,6.80
2018-12-10T02:01:06.788Z,6.80
2018-12-10T02:03:34.584Z,6.90
2018-12-10T02:06:02.093Z,6.90
2018-12-10T02:08:30.012Z,6.80
2018-12-10T02:10:57.461Z,6.80
2018-12-10T02:13:24.943Z,6.80
2018-12-10T02:15:52.424Z,6.80
2018-12-10T02:18:19.874Z,6.80
2018-12-10T02:20:47.321Z,6.70
2018-12-10T02:23:14.825Z,6.70
2018-12-10T02:25:42.296Z,6.70
2018-12-10T02:28:10.226Z,6.70
2018-12-10T02:30:37.735Z,6.70
2018-12-10T02:33:05.217Z,6.70
2018-12-10T02:35:32.690Z,6.60
2018-12-10T02:38:00.171Z,6.60
2018-12-10T02:40:27.613Z,6.60
2018-12-10T02:42:55.398Z,6.60
2018-12-10T02:45:22.978Z,6.60
2018-12-10T02:47:50.434Z,6.70
2018-12-10T02:50:17.899Z,6.70
2018-12-10T02:52:45.344Z,6.70
2018-12-10T02:55:13.223Z,6.70
2018-12-10T02:57:40.674Z,6.70
2018-12-10T03:00:08.513Z,6.80
2018-12-10T03:02:35.961Z,6.80
2018-12-10T03:05:04.824Z,6.80
2018-12-10T03:07:32.326Z,6.80
2018-12-10T03:09:59.784Z,6.80
2018-12-10T03:12:27.230Z,6.90
2018-12-10T03:14:54.719Z,6.90
2018-12-10T03:17:22.171Z,6.90
2018-12-10T03:19:49.665Z,6.80
2018-12-10T03:22:17.113Z,6.80
2018-12-10T03:24:44.615Z,6.80
2018-12-10T03:27:12.064Z,6.80
2018-12-10T03:29:39.527Z,6.80
2018-12-10T03:32:06.960Z,6.80
2018-12-10T03:34:34.422Z,6.80
2018-12-10T03:37:01.928Z,6.80
2018-12-10T03:39:29.377Z,6.80
2018-12-10T03:41:56.907Z,6.80
2018-12-10T03:44:24.395Z,6.80
2018-12-10T03:46:52.141Z,6.90
2018-12-10T03:49:19.591Z,6.90
2018-12-10T03:51:47.085Z,6.90
2018-12-10T03:54:14.531Z,6.90
2018-12-10T03:56:41.999Z,7.00
2018-12-10T03:59:09.482Z,6.90
2018-12-10T04:01:36.937Z,6.90
2018-12-10T04:04:04.406Z,6.90
2018-12-10T04:06:31.906Z,6.80
2018-12-10T04:08:59.775Z,6.80
2018-12-10T04:11:27.266Z,6.80
2018-12-10T04:13:54.983Z,6.80
2018-12-10T04:16:22.425Z,6.80
2018-12-10T04:18:49.914Z,6.80
2018-12-10T04:21:17.477Z,6.70
2018-12-10T04:23:44.941Z,6.70
2018-12-10T04:26:12.454Z,6.70
2018-12-10T04:28:39.906Z,6.70
2018-12-10T04:31:07.382Z,6.60
2018-12-10T04:33:34.839Z,6.60
2018-12-10T04:36:02.319Z,6.70
2018-12-10T04:38:29.779Z,6.60
2018-12-10T04:40:57.275Z,6.60
2018-12-10T04:43:24.742Z,6.60
2018-12-10T04:45:52.199Z,6.60
2018-12-10T04:48:20.006Z,6.60
2018-12-10T04:50:47.461Z,6.60
2018-12-10T04:53:14.941Z,6.60
2018-12-10T04:55:42.402Z,6.50
2018-12-10T04:58:09.842Z,6.50
2018-12-10T05:00:37.300Z,6.50
2018-12-10T05:03:04.798Z,6.50
2018-12-10T05:05:32.249Z,6.50
2018-12-10T05:07:59.730Z,6.50
2018-12-10T05:10:27.455Z,6.40
2018-12-10T05:12:54.912Z,6.40
2018-12-10T05:15:22.410Z,6.30
2018-12-10T05:17:49.866Z,6.40
2018-12-10T05:20:17.645Z,6.40
2018-12-10T05:22:45.226Z,6.40
2018-12-10T05:25:12.694Z,6.30
2018-12-10T05:27:40.361Z,6.40
2018-12-10T05:30:08.069Z,6.30
2018-12-10T05:32:35.526Z,6.40
2018-12-10T05:35:03.240Z,6.30
2018-12-10T05:37:30.729Z,6.30
2018-12-10T05:39:58.637Z,6.20
2018-12-10T05:42:26.118Z,6.20
2018-12-10T05:44:53.578Z,6.20
2018-12-10T05:47:21.084Z,6.20
2018-12-10T05:49:48.541Z,6.20
2018-12-10T05:52:16.000Z,6.20
2018-12-10T05:54:43.713Z,6.30
2018-12-10T05:57:11.172Z,6.30
2018-12-10T05:59:38.730Z,6.20
2018-12-10T06:02:06.172Z,6.20
2018-12-10T06:04:33.845Z,6.30
2018-12-10T06:07:01.304Z,6.20
2018-12-10T06:09:28.751Z,6.30
2018-12-10T06:11:56.222Z,6.20
2018-12-10T06:14:23.663Z,6.00
2018-12-10T06:16:51.342Z,6.20
2018-12-10T06:19:18.839Z,6.10
2018-12-10T06:21:46.554Z,6.20
2018-12-10T06:24:14.005Z,6.10
2018-12-10T06:26:41.481Z,6.10
2018-12-10T06:29:08.987Z,6.10
2018-12-10T06:31:36.437Z,6.10
2018-12-10T06:34:03.920Z,6.10
2018-12-10T06:36:31.460Z,6.10
2018-12-10T06:38:59.006Z,6.20
2018-12-10T06:41:26.445Z,6.10
2018-12-10T06:43:55.221Z,6.20
2018-12-10T06:46:22.673Z,6.20
2018-12-10T06:48:50.118Z,6.20
2018-12-10T06:51:17.656Z,6.20
2018-12-10T06:53:45.140Z,6.10
2018-12-10T06:56:12.589Z,6.10
2018-12-10T06:58:40.042Z,5.90
2018-12-10T07:01:07.748Z,5.80
2018-12-10T07:03:35.193Z,5.80
2018-12-10T07:06:03.082Z,5.80
2018-12-10T07:08:30.638Z,5.80
2018-12-10T07:10:58.056Z,5.70
2018-12-10T07:13:25.510Z,5.80
2018-12-10T07:15:52.964Z,6.00
2018-12-10T07:18:20.464Z,5.90
2018-12-10T07:20:47.993Z,5.70
2018-12-10T07:23:15.473Z,5.60
2018-12-10T07:25:42.913Z,5.40
2018-12-10T07:28:10.402Z,5.20
2018-12-10T07:30:41.391Z,4.90
2018-12-10T07:33:07.310Z,5.20
2018-12-10T07:35:34.792Z,5.10
2018-12-10T07:38:02.248Z,4.90
2018-12-10T07:40:29.701Z,5.00
2018-12-10T07:42:57.156Z,4.80
2018-12-10T07:45:25.038Z,5.00
2018-12-10T07:47:52.511Z,5.00
2018-12-10T07:50:19.966Z,4.80
2018-12-10T07:52:47.416Z,4.90
2018-12-10T07:55:14.898Z,4.70
2018-12-10T07:57:42.353Z,4.90
2018-12-10T08:00:09.873Z,5.00
2018-12-10T08:02:37.309Z,5.10
2018-12-10T08:05:12.156Z,5.10
2018-12-10T08:07:34.695Z,5.10
2018-12-10T08:10:02.157Z,5.10
2018-12-10T08:12:29.599Z,5.20
2018-12-10T08:14:57.052Z,5.20
2018-12-10T08:17:24.507Z,5.20
2018-12-10T08:19:51.965Z,5.20
2018-12-10T08:22:19.426Z,5.20
2018-12-10T08:24:46.901Z,5.20
2018-12-10T08:27:14.376Z,5.30
2018-12-10T08:29:41.824Z,5.30
2018-12-10T08:32:09.339Z,5.30
2018-12-10T08:34:41.371Z,5.30
2018-12-10T08:37:06.252Z,5.20
2018-12-10T08:39:33.745Z,5.30
2018-12-10T08:42:01.197Z,5.30
2018-12-10T08:44:28.661Z,5.30
2018-12-10T08:46:56.117Z,5.50
2018-12-10T08:49:23.621Z,5.50
2018-12-10T08:51:51.093Z,5.50
2018-12-10T08:54:18.560Z,5.60
2018-12-10T08:56:45.998Z,5.60
2018-12-10T08:59:13.451Z,5.60
2018-12-10T09:01:40.903Z,5.60
2018-12-10T09:04:09.761Z,5.60
2018-12-10T09:06:37.202Z,5.60
2018-12-10T09:09:05.213Z,5.70
2018-12-10T09:11:32.701Z,5.70
2018-12-10T09:14:00.173Z,5.80
2018-12-10T09:16:28.007Z,5.70
2018-12-10T09:18:55.464Z,5.80
2018-12-10T09:21:22.942Z,5.80
2018-12-10T09:23:50.462Z,5.90
2018-12-10T09:26:18.357Z,6.00
2018-12-10T09:28:45.836Z,6.00
2018-12-10T09:31:13.277Z,6.10
2018-12-10T09:33:40.795Z,6.10
2018-12-10T09:36:08.309Z,5.80
2018-12-10T09:38:35.745Z,5.90
2018-12-10T09:41:03.213Z,6.00
2018-12-10T09:43:30.669Z,6.10
2018-12-10T09:45:58.134Z,6.20
2018-12-10T09:48:25.616Z,6.40
2018-12-10T09:50:53.084Z,6.30
2018-12-10T09:53:20.536Z,6.40
2018-12-10T09:55:48.005Z,6.40
2018-12-10T09:58:15.471Z,6.50
2018-12-10T10:00:42.930Z,6.60
2018-12-10T10:03:10.397Z,6.70
2018-12-10T10:05:37.877Z,6.70
2018-12-10T10:08:05.629Z,6.60
2018-12-10T10:10:33.235Z,6.60
2018-12-10T10:13:00.716Z,6.60
2018-12-10T10:15:28.419Z,6.50
2018-12-10T10:17:55.842Z,6.60
2018-12-10T10:20:23.664Z,6.60
2018-12-10T10:22:51.181Z,6.60
2018-12-10T10:25:18.653Z,6.60
2018-12-10T10:27:46.135Z,6.80
2018-12-10T10:30:13.591Z,6.70
2018-12-10T10:32:41.041Z,6.70
2018-12-10T10:35:08.537Z,6.70
2018-12-10T10:37:36.015Z,6.70
2018-12-10T10:40:04.675Z,6.70
2018-12-10T10:42:32.314Z,6.80
2018-12-10T10:44:59.938Z,7.00
2018-12-10T10:47:27.428Z,7.00
2018-12-10T10:49:54.879Z,7.00
2018-12-10T10:52:22.360Z,7.00
2018-12-10T10:54:49.826Z,7.10
2018-12-10T10:57:17.276Z,7.10
2018-12-10T10:59:45.105Z,7.20
2018-12-10T11:02:17.394Z,7.20
2018-12-10T11:04:44.853Z,7.30
2018-12-10T11:07:12.306Z,7.30
2018-12-10T11:09:39.764Z,7.20
2018-12-10T11:12:07.255Z,7.20
2018-12-10T11:14:34.706Z,7.20
2018-12-10T11:17:02.161Z,7.20
2018-12-10T11:19:29.616Z,7.20
2018-12-10T11:21:57.090Z,7.20
2018-12-10T11:24:24.573Z,7.10
2018-12-10T11:26:52.048Z,7.10
2018-12-10T11:29:19.492Z,7.10
2018-12-10T11:31:46.948Z,7.10
2018-12-10T11:34:14.402Z,7.10
2018-12-10T11:36:41.916Z,7.10
2018-12-10T11:39:09.358Z,7.10
2018-12-10T11:41:36.821Z,7.10
2018-12-10T11:44:04.318Z,7.20
2018-12-10T11:46:31.784Z,7.20
2018-12-10T11:48:59.270Z,7.20
2018-12-10T11:51:26.746Z,7.20
2018-12-10T11:53:55.418Z,7.20
2018-12-10T11:56:23.084Z,7.20
2018-12-10T11:58:50.585Z,7.20
2018-12-10T12:01:18.161Z,7.20
2018-12-10T12:03:45.722Z,7.10
2018-12-10T12:06:13.632Z,7.10
2018-12-10T12:08:42.505Z,7.20
2018-12-10T12:11:10.004Z,7.20
2018-12-10T12:13:37.523Z,7.20
2018-12-10T12:16:05.133Z,7.20
2018-12-10T12:18:32.770Z,7.20
2018-12-10T12:21:00.317Z,7.20
2018-12-10T12:23:28.035Z,7.20
2018-12-10T12:25:55.570Z,7.10
2018-12-10T12:28:23.016Z,7.10
2018-12-10T12:30:50.479Z,7.00
2018-12-10T12:33:18.617Z,7.00
2018-12-10T12:35:46.070Z,7.00
2018-12-10T12:38:13.523Z,7.10
2018-12-10T12:40:41.000Z,7.10
2018-12-10T12:43:15.842Z,7.10
2018-12-10T12:45:37.939Z,7.00
2018-12-10T12:48:05.422Z,6.90
2018-12-10T12:50:32.965Z,6.90
2018-12-10T12:53:00.409Z,6.70
2018-12-10T12:55:27.859Z,6.70
2018-12-10T12:57:55.302Z,6.70
2018-12-10T13:00:26.956Z,6.60
2018-12-10T13:02:52.212Z,6.60
2018-12-10T13:05:19.745Z,6.50
2018-12-10T13:07:47.321Z,6.60
2018-12-10T13:10:14.829Z,6.50
2018-12-10T13:12:42.295Z,6.50
2018-12-10T13:15:09.728Z,6.50
2018-12-10T13:17:37.181Z,6.40
2018-12-10T13:20:05.808Z,6.50
2018-12-10T13:22:33.256Z,6.50
2018-12-10T13:25:00.727Z,6.50
2018-12-10T13:27:28.181Z,6.50
2018-12-10T13:29:55.639Z,6.40
2018-12-10T13:32:23.100Z,6.40
2018-12-10T13:34:50.556Z,6.50
2018-12-10T13:37:18.060Z,6.40
2018-12-10T13:39:45.502Z,6.40
2018-12-10T13:42:12.965Z,6.40
2018-12-10T13:44:40.425Z,6.40
2018-12-10T13:47:07.947Z,6.40
2018-12-10T13:49:35.438Z,6.40
2018-12-10T13:52:02.907Z,6.40
2018-12-10T13:54:30.345Z,6.50
2018-12-10T13:56:57.889Z,6.50
2018-12-10T13:59:25.345Z,6.50
2018-12-10T14:01:52.805Z,6.50
2018-12-10T14:04:22.163Z,6.50
2018-12-10T14:06:49.651Z,6.50
2018-12-10T14:09:17.086Z,6.50
2018-12-10T14:11:44.549Z,6.50
2018-12-10T14:14:11.984Z,6.50
2018-12-10T14:16:39.487Z,6.50
2018-12-10T14:19:07.005Z,6.50
2018-12-10T14:21:34.457Z,6.50
2018-12-10T14:24:01.964Z,6.50
2018-12-10T14:26:29.465Z,6.60
2018-12-10T14:28:56.945Z,6.70
2018-12-10T14:31:27.383Z,6.80
2018-12-10T14:33:56.320Z,6.90
2018-12-10T14:36:24.098Z,6.90
2018-12-10T14:38:51.566Z,6.90
2018-12-10T14:41:19.041Z,6.90
2018-12-10T14:43:46.508Z,6.90
2018-12-10T14:46:13.968Z,6.90
2018-12-10T14:48:41.429Z,6.80
2018-12-10T14:51:08.879Z,6.80
2018-12-10T14:53:36.329Z,6.70
2018-12-10T14:56:03.836Z,6.70
2018-12-10T14:58:31.289Z,6.80
2018-12-10T15:00:58.737Z,6.70
2018-12-10T15:03:26.193Z,6.70
2018-12-10T15:05:53.735Z,6.70
2018-12-10T15:08:21.198Z,6.70
2018-12-10T15:10:48.701Z,6.70
2018-12-10T15:13:16.164Z,6.60
2018-12-10T15:15:43.615Z,6.50
2018-12-10T15:18:11.651Z,6.50
2018-12-10T15:20:39.099Z,6.50
2018-12-10T15:23:06.550Z,6.50
2018-12-10T15:25:33.997Z,6.50
2018-12-10T15:28:01.488Z,6.40
2018-12-10T15:30:28.936Z,6.40
2018-12-10T15:32:56.385Z,6.40
2018-12-10T15:35:23.865Z,6.40
2018-12-10T15:37:51.357Z,6.30
2018-12-10T15:40:18.793Z,6.30
2018-12-10T15:42:46.259Z,6.30
2018-12-10T15:45:13.739Z,6.30
2018-12-10T15:47:41.185Z,6.20
2018-12-10T15:50:08.669Z,6.20
2018-12-10T15:52:36.165Z,6.30
2018-12-10T15:55:04.469Z,6.30
2018-12-10T15:57:32.000Z,6.30
2018-12-10T15:59:59.449Z,6.20
2018-12-10T16:02:26.944Z,6.30
2018-12-10T16:04:54.390Z,6.30
2018-12-10T16:07:21.927Z,6.20
2018-12-10T16:09:49.466Z,6.20
2018-12-10T16:12:17.583Z,6.00
2018-12-10T16:14:45.024Z,6.00
2018-12-10T16:17:12.805Z,6.00
2018-12-10T16:19:40.255Z,6.00
2018-12-10T16:22:07.733Z,6.00
2018-12-10T16:24:35.192Z,6.10
2018-12-10T16:27:02.641Z,6.20
2018-12-10T16:29:30.126Z,6.30
2018-12-10T16:31:57.590Z,6.20
2018-12-10T16:34:26.147Z,6.10
2018-12-10T16:36:54.079Z,6.20
2018-12-10T16:39:21.571Z,6.20
2018-12-10T16:41:49.054Z,6.30
2018-12-10T16:44:16.523Z,6.20
2018-12-10T16:46:43.989Z,6.20
2018-12-10T16:49:11.436Z,6.10
2018-12-10T16:51:38.886Z,6.00
2018-12-10T16:54:07.153Z,6.00
2018-12-10T16:56:34.954Z,6.00
2018-12-10T16:59:02.457Z,5.90
2018-12-10T17:01:29.915Z,5.90
2018-12-10T17:03:57.367Z,5.80
2018-12-10T17:06:24.904Z,5.90
2018-12-10T17:08:52.737Z,5.80
2018-12-10T17:11:20.240Z,5.80
2018-12-10T17:13:47.752Z,5.70
2018-12-10T17:16:15.222Z,5.70
2018-12-10T17:18:42.678Z,5.70
2018-12-10T17:21:10.210Z,5.70
2018-12-10T17:23:39.153Z,5.60
2018-12-10T17:26:06.675Z,5.70
2018-12-10T17:28:34.133Z,5.60
2018-12-10T17:31:01.627Z,5.60
2018-12-10T17:33:29.347Z,5.50
2018-12-10T17:35:56.845Z,5.50
2018-12-10T17:38:24.502Z,5.50
2018-12-10T17:40:52.023Z,5.40
2018-12-10T17:43:19.525Z,5.30
2018-12-10T17:45:46.987Z,5.10
2018-12-10T17:48:14.437Z,5.10
2018-12-10T17:50:41.902Z,5.00
2018-12-10T17:53:09.394Z,5.00
2018-12-10T17:55:36.859Z,5.00
2018-12-10T17:58:04.357Z,5.00
2018-12-10T18:00:31.828Z,5.10
2018-12-10T18:02:59.411Z,4.90
2018-12-10T18:05:26.915Z,4.80
2018-12-10T18:07:54.367Z,4.90
2018-12-10T18:10:21.854Z,5.00
2018-12-10T18:12:49.306Z,4.80
2018-12-10T18:15:16.826Z,5.00
2018-12-10T18:17:44.273Z,5.10
2018-12-10T18:20:11.757Z,5.00
2018-12-10T18:22:39.208Z,4.90
2018-12-10T18:25:06.737Z,5.00
2018-12-10T18:27:34.194Z,4.90
2018-12-10T18:30:01.673Z,5.00
2018-12-10T18:32:29.161Z,4.90
2018-12-10T18:34:56.656Z,4.80
2018-12-10T18:37:24.118Z,5.10
2018-12-10T18:39:51.617Z,5.20
2018-12-10T18:42:19.519Z,5.30
2018-12-10T18:44:46.965Z,5.30
2018-12-10T18:47:14.430Z,5.30
2018-12-10T18:49:41.893Z,5.30
2018-12-10T18:52:09.383Z,5.40
2018-12-10T18:54:36.866Z,5.30
2018-12-10T18:57:04.329Z,5.30
2018-12-10T18:59:31.792Z,5.30
2018-12-10T19:01:59.251Z,5.40
2018-12-10T19:04:26.703Z,5.40
2018-12-10T19:06:54.196Z,5.40
2018-12-10T19:09:21.774Z,5.40
2018-12-10T19:11:49.259Z,5.40
2018-12-10T19:14:16.705Z,5.50
2018-12-10T19:16:44.201Z,5.50
2018-12-10T19:19:11.655Z,5.50
2018-12-10T19:21:39.569Z,5.60
2018-12-10T19:24:07.081Z,5.60
2018-12-10T19:26:34.586Z,5.60
2018-12-10T19:29:02.188Z,5.60
2018-12-10T19:31:29.636Z,5.60
2018-12-10T19:33:57.090Z,5.50
2018-12-10T19:36:24.545Z,5.50
2018-12-10T19:38:52.005Z,5.50
2018-12-10T19:41:19.456Z,5.50
2018-12-10T19:43:46.897Z,5.50
2018-12-10T19:46:14.353Z,5.50
2018-12-10T19:48:41.785Z,5.50
2018-12-10T19:51:09.248Z,5.40
2018-12-10T19:53:36.691Z,5.40
2018-12-10T19:56:04.140Z,5.50
2018-12-10T19:58:31.618Z,5.50
2018-12-10T20:00:59.077Z,5.40
2018-12-10T20:03:26.520Z,5.40
2018-12-10T20:05:59.797Z,5.40
2018-12-10T20:08:27.229Z,5.40
2018-12-10T20:10:54.695Z,5.40
2018-12-10T20:13:22.138Z,5.40
2018-12-10T20:15:49.600Z,5.40
2018-12-10T20:18:17.053Z,5.30
2018-12-10T20:20:44.517Z,5.40
2018-12-10T20:23:11.971Z,5.40
2018-12-10T20:25:39.456Z,5.40
2018-12-10T20:28:06.940Z,5.40
2018-12-10T20:30:34.474Z,5.40
2018-12-10T20:33:02.227Z,5.40
2018-12-10T20:35:29.684Z,5.40
2018-12-10T20:37:57.155Z,5.30
2018-12-10T20:40:24.606Z,5.20
2018-12-10T20:42:52.069Z,5.30
2018-12-10T20:45:19.535Z,5.20
2018-12-10T20:47:47.006Z,5.20
2018-12-10T20:50:14.467Z,5.30
2018-12-10T20:52:41.933Z,5.20
2018-12-10T20:55:09.510Z,5.20
2018-12-10T20:57:41.435Z,5.10
2018-12-10T21:00:06.751Z,5.10
2018-12-10T21:02:34.219Z,5.10
2018-12-10T21:05:01.676Z,5.10
2018-12-10T21:07:29.155Z,5.20
2018-12-10T21:09:56.609Z,5.10
2018-12-10T21:12:24.079Z,5.20
2018-12-10T21:14:51.869Z,5.10
2018-12-10T21:17:19.766Z,5.10
2018-12-10T21:19:47.247Z,5.10
2018-12-10T21:22:14.730Z,5.10
2018-12-10T21:24:42.179Z,5.10
2018-12-10T21:27:10.550Z,5.20
2018-12-10T21:29:38.242Z,5.10
2018-12-10T21:32:05.740Z,5.00
2018-12-10T21:34:33.193Z,5.10
2018-12-10T21:37:01.012Z,5.10
2018-12-10T21:39:28.468Z,5.10
2018-12-10T21:41:55.941Z,5.30
2018-12-10T21:44:23.382Z,5.30
2018-12-10T21:46:50.833Z,5.20
2018-12-10T21:49:18.301Z,5.30
2018-12-10T21:51:45.793Z,5.20
2018-12-10T21:54:13.252Z,5.10
2018-12-10T21:56:40.704Z,5.20
2018-12-10T21:59:08.138Z,5.10
2018-12-10T22:01:35.654Z,5.10
2018-12-10T22:04:03.547Z,5.00
2018-12-10T22:06:31.001Z,5.00
2018-12-10T22:08:58.497Z,5.00
2018-12-10T22:11:25.959Z,5.00
2018-12-10T22:13:53.865Z,5.00
2018-12-10T22:16:21.307Z,5.00
2018-12-10T22:18:48.774Z,4.90
2018-12-10T22:21:16.239Z,4.90
2018-12-10T22:23:43.702Z,4.90
2018-12-10T22:26:11.156Z,4.90
2018-12-10T22:28:38.610Z,4.80
2018-12-10T22:31:06.086Z,4.80
2018-12-10T22:33:33.541Z,4.90
2018-12-10T22:36:01.440Z,4.80
2018-12-10T22:38:28.897Z,4.80
2018-12-10T22:40:57.265Z,4.80
2018-12-10T22:43:25.001Z,4.80
2018-12-10T22:45:52.463Z,4.80
2018-12-10T22:48:19.994Z,4.80
2018-12-10T22:50:47.452Z,4.80
2018-12-10T22:53:14.917Z,4.70
2018-12-10T22:55:42.508Z,4.70
2018-12-10T22:58:09.975Z,4.70
2018-12-10T23:00:42.469Z,4.70
2018-12-10T23:03:09.920Z,4.60
2018-12-10T23:05:37.405Z,4.60
2018-12-10T23:08:04.924Z,4.50
2018-12-10T23:10:32.378Z,4.50
2018-12-10T23:12:59.829Z,4.50
2018-12-10T23:15:27.290Z,4.50
2018-12-10T23:17:54.798Z,4.40
2018-12-10T23:20:22.286Z,4.40
2018-12-10T23:22:49.756Z,4.40
2018-12-10T23:25:17.244Z,4.40
2018-12-10T23:27:44.701Z,4.40
2018-12-10T23:30:12.468Z,4.50
2018-12-10T23:32:39.933Z,4.40
2018-12-10T23:35:07.468Z,4.40
2018-12-10T23:37:34.937Z,4.30
2018-12-10T23:40:02.611Z,4.30
2018-12-10T23:42:30.077Z,4.40
2018-12-10T23:44:57.520Z,4.40
2018-12-10T23:47:25.009Z,4.30
2018-12-10T23:49:52.479Z,4.30
2018-12-10T23:52:19.965Z,4.30
2018-12-10T23:54:47.434Z,4.40
2018-12-10T23:57:14.909Z,4.40
2018-12-10T23:59:42.354Z,4.30
